Time;durP1;ratioP1;P1;durP2;ratioP2;P2;SDS_P1;SDS_P2;PMS_P1;PMS_P2;Temp;Humidity;BMP_temperature;BMP_pressure;BME280_temperature;BME280_humidity;BME280_pressure;Samples;Min_cycle;Max_cycle;Signal;HPM_P1;HPM_P2
2023/12/12 00:00:06;;;;;;;;;;;6.20;99.90;;;;;;4971303;28;20439;-66
2023/12/12 00:02:32;;;;;;;;;;;6.20;99.90;;;;;;4971859;28;20530;-66
2023/12/12 00:04:57;;;;;;;;;;;6.20;99.90;;;;;;4971719;28;19979;-66
2023/12/12 00:07:23;;;;;;;;;;;6.20;99.90;;;;;;4971833;28;20017;-66
2023/12/12 00:09:48;;;;;;;;;;;6.30;99.90;;;;;;4974202;28;19978;-65
2023/12/12 00:12:14;;;;;;;;;;;6.20;99.90;;;;;;4975119;28;19959;-66
2023/12/12 00:14:39;;;;;;;;;;;6.20;99.90;;;;;;4975624;28;20416;-67
2023/12/12 00:17:05;;;;;;;;;;;6.20;99.90;;;;;;4975800;28;19994;-68
2023/12/12 00:19:30;;;;;;;;;;;6.20;99.90;;;;;;4975349;28;19970;-67
2023/12/12 00:21:56;;;;;;;;;;;6.10;99.90;;;;;;4974864;28;20045;-66
2023/12/12 00:24:21;;;;;;;;;;;6.20;99.90;;;;;;4975090;28;19995;-66
2023/12/12 00:26:47;;;;;;;;;;;6.20;99.90;;;;;;4975629;28;19974;-66
2023/12/12 00:29:13;;;;;;;;;;;6.20;99.90;;;;;;4975419;28;19970;-66
2023/12/12 00:31:38;;;;;;;;;;;6.20;99.90;;;;;;4974528;28;20364;-66
2023/12/12 00:34:04;;;;;;;;;;;6.20;99.90;;;;;;4975404;28;20018;-66
2023/12/12 00:36:29;;;;;;;;;;;6.20;99.90;;;;;;4975197;28;19969;-66
2023/12/12 00:38:55;;;;;;;;;;;6.20;99.90;;;;;;4974897;28;20130;-66
2023/12/12 00:41:30;;;;;;;;;;;6.20;99.90;;;;;;4974364;28;20018;-66
2023/12/12 00:43:55;;;;;;;;;;;6.20;99.90;;;;;;4974953;28;19974;-67
2023/12/12 00:46:21;;;;;;;;;;;6.20;99.90;;;;;;4975042;28;20012;-66
2023/12/12 00:48:46;;;;;;;;;;;6.10;99.90;;;;;;4973645;28;19970;-66
2023/12/12 00:51:12;;;;;;;;;;;6.10;99.90;;;;;;4974415;28;20100;-67
2023/12/12 00:53:38;;;;;;;;;;;6.10;99.90;;;;;;4974640;28;19977;-66
2023/12/12 00:56:03;;;;;;;;;;;6.20;99.90;;;;;;4975051;28;20018;-67
2023/12/12 00:58:29;;;;;;;;;;;6.20;99.90;;;;;;4974860;28;19962;-67
2023/12/12 01:00:54;;;;;;;;;;;6.20;99.90;;;;;;4973980;28;20016;-67
2023/12/12 01:03:20;;;;;;;;;;;6.20;99.90;;;;;;4974813;28;19958;-67
2023/12/12 01:05:45;;;;;;;;;;;6.20;99.90;;;;;;4974536;28;20460;-67
2023/12/12 01:08:11;;;;;;;;;;;6.20;99.90;;;;;;4974519;28;19959;-66
2023/12/12 01:10:36;;;;;;;;;;;6.20;99.90;;;;;;4973873;28;20371;-66
2023/12/12 01:13:04;;;;;;;;;;;6.20;99.90;;;;;;4974503;28;19963;-66
2023/12/12 01:15:29;;;;;;;;;;;6.30;99.90;;;;;;4974616;28;20383;-66
2023/12/12 01:17:55;;;;;;;;;;;6.30;99.90;;;;;;4974129;28;19962;-66
2023/12/12 01:20:20;;;;;;;;;;;6.30;99.90;;;;;;4973097;28;19978;-67
2023/12/12 01:22:46;;;;;;;;;;;6.30;99.90;;;;;;4974109;28;20017;-67
2023/12/12 01:25:11;;;;;;;;;;;6.30;99.90;;;;;;4974112;28;19978;-66
2023/12/12 01:27:37;;;;;;;;;;;6.30;99.90;;;;;;4974232;28;19966;-66
2023/12/12 01:30:03;;;;;;;;;;;6.30;99.90;;;;;;4973619;28;20013;-67
2023/12/12 01:32:28;;;;;;;;;;;6.20;99.90;;;;;;4974233;28;19958;-66
2023/12/12 01:34:53;;;;;;;;;;;6.20;99.90;;;;;;4974057;28;20462;-66
2023/12/12 01:37:19;;;;;;;;;;;6.20;99.90;;;;;;4974079;28;19961;-66
2023/12/12 01:39:44;;;;;;;;;;;6.20;99.90;;;;;;4973660;28;20013;-67
2023/12/12 01:42:11;;;;;;;;;;;6.20;99.90;;;;;;4973842;28;20049;-66
2023/12/12 01:44:36;;;;;;;;;;;6.30;99.90;;;;;;4974128;28;20025;-66
2023/12/12 01:47:02;;;;;;;;;;;6.30;99.90;;;;;;4974056;28;20058;-66
2023/12/12 01:49:27;;;;;;;;;;;6.30;99.90;;;;;;4973921;28;20013;-66
2023/12/12 01:51:53;;;;;;;;;;;6.30;99.90;;;;;;4973209;28;20339;-65
2023/12/12 01:54:19;;;;;;;;;;;6.40;99.90;;;;;;4973727;28;19958;-67
2023/12/12 01:56:47;;;;;;;;;;;6.40;99.90;;;;;;4973675;28;20328;-66
2023/12/12 01:59:13;;;;;;;;;;;6.30;99.90;;;;;;4973595;28;20475;-67
2023/12/12 02:01:39;;;;;;;;;;;6.40;99.90;;;;;;4972848;28;19997;-67
2023/12/12 02:04:05;;;;;;;;;;;6.30;99.90;;;;;;4973502;28;19977;-66
2023/12/12 02:06:31;;;;;;;;;;;6.30;99.90;;;;;;4973480;28;20021;-66
2023/12/12 02:08:56;;;;;;;;;;;6.30;99.90;;;;;;4973258;28;19958;-66
2023/12/12 02:11:22;;;;;;;;;;;6.30;99.90;;;;;;4972744;28;20467;-66
2023/12/12 02:13:48;;;;;;;;;;;6.30;99.90;;;;;;4973196;28;20142;-67
2023/12/12 02:16:13;;;;;;;;;;;6.30;99.90;;;;;;4973737;28;19962;-66
2023/12/12 02:18:39;;;;;;;;;;;6.30;99.90;;;;;;4973143;28;19959;-65
2023/12/12 02:21:05;;;;;;;;;;;6.20;99.90;;;;;;4972487;28;20483;-65
2023/12/12 02:23:31;;;;;;;;;;;6.10;99.90;;;;;;4973396;28;19963;-65
2023/12/12 02:25:57;;;;;;;;;;;5.90;99.90;;;;;;4972936;28;20033;-66
2023/12/12 02:28:22;;;;;;;;;;;6.00;99.90;;;;;;4973206;28;20102;-65
2023/12/12 02:30:48;;;;;;;;;;;5.90;99.90;;;;;;4971674;28;20428;-66
2023/12/12 02:33:14;;;;;;;;;;;5.90;99.90;;;;;;4972765;28;20062;-67
2023/12/12 02:35:39;;;;;;;;;;;5.90;99.90;;;;;;4972803;28;19969;-66
2023/12/12 02:38:05;;;;;;;;;;;5.80;99.90;;;;;;4972985;28;19958;-66
2023/12/12 02:40:30;;;;;;;;;;;5.80;99.90;;;;;;4972081;28;20025;-66
2023/12/12 02:42:55;;;;;;;;;;;5.70;99.90;;;;;;4972869;28;20342;-66
2023/12/12 02:45:21;;;;;;;;;;;5.70;99.90;;;;;;4972876;28;20418;-66
2023/12/12 02:47:46;;;;;;;;;;;5.60;99.90;;;;;;4972743;28;19966;-65
2023/12/12 02:50:12;;;;;;;;;;;5.60;99.90;;;;;;4972032;28;20448;-66
2023/12/12 02:52:37;;;;;;;;;;;5.60;99.90;;;;;;4972840;28;19966;-66
2023/12/12 02:55:03;;;;;;;;;;;5.50;99.90;;;;;;4972825;28;20475;-66
2023/12/12 02:57:29;;;;;;;;;;;5.60;99.90;;;;;;4972241;28;19967;-65
2023/12/12 02:59:54;;;;;;;;;;;5.60;99.90;;;;;;4971754;28;19985;-66
2023/12/12 03:02:19;;;;;;;;;;;5.50;99.90;;;;;;4972538;28;19958;-66
2023/12/12 03:04:45;;;;;;;;;;;5.50;99.90;;;;;;4972179;28;19985;-66
2023/12/12 03:07:11;;;;;;;;;;;5.60;99.90;;;;;;4972438;28;20356;-65
2023/12/12 03:09:37;;;;;;;;;;;5.60;99.90;;;;;;4971872;28;20347;-66
2023/12/12 03:12:02;;;;;;;;;;;5.60;99.90;;;;;;4971928;28;19945;-66
2023/12/12 03:14:31;;;;;;;;;;;5.60;99.90;;;;;;4972475;28;19970;-66
2023/12/12 03:16:57;;;;;;;;;;;5.60;99.90;;;;;;4972245;28;20444;-65
2023/12/12 03:19:23;;;;;;;;;;;5.60;99.90;;;;;;4972230;28;19974;-67
2023/12/12 03:21:48;;;;;;;;;;;5.70;99.90;;;;;;4971587;28;19971;-65
2023/12/12 03:24:14;;;;;;;;;;;5.60;99.90;;;;;;4971997;28;19982;-66
2023/12/12 03:26:39;;;;;;;;;;;5.60;99.90;;;;;;4972030;28;19990;-65
2023/12/12 03:29:05;;;;;;;;;;;5.60;99.90;;;;;;4972081;28;19986;-66
2023/12/12 03:31:31;;;;;;;;;;;5.60;99.90;;;;;;4971480;28;20006;-65
2023/12/12 03:33:56;;;;;;;;;;;5.60;99.90;;;;;;4971780;28;20498;-65
2023/12/12 03:36:22;;;;;;;;;;;5.60;99.90;;;;;;4972101;28;20061;-65
2023/12/12 03:38:47;;;;;;;;;;;5.60;99.90;;;;;;4971762;28;19978;-65
2023/12/12 03:41:13;;;;;;;;;;;5.60;99.90;;;;;;4971334;28;20037;-66
2023/12/12 03:43:38;;;;;;;;;;;5.60;99.90;;;;;;4971737;28;19962;-66
2023/12/12 03:46:04;;;;;;;;;;;5.60;99.90;;;;;;4971843;28;20081;-65
2023/12/12 03:48:30;;;;;;;;;;;5.60;99.90;;;;;;4971969;28;20424;-66
2023/12/12 03:50:55;;;;;;;;;;;5.60;99.90;;;;;;4971108;28;19981;-66
2023/12/12 03:53:21;;;;;;;;;;;5.60;99.90;;;;;;4971730;28;20347;-66
2023/12/12 03:55:46;;;;;;;;;;;5.60;99.90;;;;;;4971723;28;20061;-65
2023/12/12 03:58:12;;;;;;;;;;;5.60;99.90;;;;;;4972097;28;19954;-66
2023/12/12 04:00:37;;;;;;;;;;;5.60;99.90;;;;;;4971089;28;20459;-67
2023/12/12 04:03:02;;;;;;;;;;;5.60;99.90;;;;;;4971675;28;19973;-67
2023/12/12 04:05:28;;;;;;;;;;;5.60;99.90;;;;;;4971661;28;20472;-66
2023/12/12 04:07:53;;;;;;;;;;;5.60;99.90;;;;;;4971616;28;19970;-66
2023/12/12 04:10:19;;;;;;;;;;;5.60;99.90;;;;;;4970843;28;20053;-65
2023/12/12 04:12:44;;;;;;;;;;;5.50;99.90;;;;;;4971661;28;19955;-65
2023/12/12 04:15:10;;;;;;;;;;;5.50;99.90;;;;;;4971651;28;19959;-66
2023/12/12 04:17:35;;;;;;;;;;;5.60;99.90;;;;;;4971521;28;20061;-67
2023/12/12 04:20:01;;;;;;;;;;;5.60;99.90;;;;;;4970724;28;20642;-66
2023/12/12 04:22:26;;;;;;;;;;;5.60;99.90;;;;;;4971511;28;20010;-65
2023/12/12 04:24:52;;;;;;;;;;;5.60;99.90;;;;;;4971299;28;19994;-65
2023/12/12 04:27:17;;;;;;;;;;;5.50;99.90;;;;;;4971641;28;20487;-67
2023/12/12 04:29:43;;;;;;;;;;;5.60;99.90;;;;;;4971212;28;20482;-66
2023/12/12 04:32:08;;;;;;;;;;;5.60;99.90;;;;;;4970615;28;19966;-67
2023/12/12 04:34:34;;;;;;;;;;;5.70;99.90;;;;;;4971629;28;20392;-67
2023/12/12 04:37:01;;;;;;;;;;;5.70;99.90;;;;;;4971347;28;19961;-66
2023/12/12 04:39:27;;;;;;;;;;;5.70;99.90;;;;;;4971282;28;20503;-66
2023/12/12 04:41:52;;;;;;;;;;;5.70;99.90;;;;;;4970915;28;20033;-66
2023/12/12 04:44:17;;;;;;;;;;;5.70;99.90;;;;;;4971379;28;20040;-66
2023/12/12 04:46:43;;;;;;;;;;;5.70;99.90;;;;;;4971332;28;19970;-65
2023/12/12 04:49:08;;;;;;;;;;;5.70;99.90;;;;;;4971311;28;19963;-66
2023/12/12 04:51:34;;;;;;;;;;;5.70;99.90;;;;;;4970634;28;19986;-65
2023/12/12 04:53:59;;;;;;;;;;;5.70;99.90;;;;;;4971002;28;20476;-66
2023/12/12 04:56:25;;;;;;;;;;;5.70;99.90;;;;;;4974699;28;19966;-66
2023/12/12 04:58:50;;;;;;;;;;;5.80;99.90;;;;;;4974665;28;20432;-67
2023/12/12 05:01:16;;;;;;;;;;;5.80;99.90;;;;;;4974064;28;20429;-67
2023/12/12 05:03:42;;;;;;;;;;;5.80;99.90;;;;;;4974559;28;19963;-68
2023/12/12 05:06:08;;;;;;;;;;;5.80;99.90;;;;;;4974476;28;19978;-68
2023/12/12 05:08:34;;;;;;;;;;;5.80;99.90;;;;;;4974457;28;20328;-68
2023/12/12 05:10:59;;;;;;;;;;;5.80;99.90;;;;;;4973707;28;20002;-68
2023/12/12 05:13:25;;;;;;;;;;;5.80;99.90;;;;;;4974572;28;19958;-68
2023/12/12 05:15:51;;;;;;;;;;;5.90;99.90;;;;;;4973090;28;19966;-68
2023/12/12 05:18:16;;;;;;;;;;;5.90;99.90;;;;;;4974350;28;19967;-68
2023/12/12 05:20:41;;;;;;;;;;;5.80;99.90;;;;;;4973446;28;20052;-68
2023/12/12 05:23:07;;;;;;;;;;;5.90;99.90;;;;;;4974261;28;20416;-67
2023/12/12 05:25:33;;;;;;;;;;;5.90;99.90;;;;;;4974185;28;19990;-67
2023/12/12 05:27:59;;;;;;;;;;;5.90;99.90;;;;;;4974070;28;19958;-67
2023/12/12 05:30:24;;;;;;;;;;;5.80;99.90;;;;;;4973416;28;19985;-68
2023/12/12 05:32:50;;;;;;;;;;;5.80;99.90;;;;;;4973935;28;19958;-68
2023/12/12 05:35:15;;;;;;;;;;;5.80;99.90;;;;;;4974003;28;19970;-67
2023/12/12 05:37:41;;;;;;;;;;;5.80;99.90;;;;;;4973876;28;19963;-67
2023/12/12 05:40:07;;;;;;;;;;;5.80;99.90;;;;;;4973300;28;19986;-68
2023/12/12 05:42:33;;;;;;;;;;;5.80;99.90;;;;;;4974042;28;19970;-67
2023/12/12 05:44:58;;;;;;;;;;;5.80;99.90;;;;;;4973736;28;19985;-67
2023/12/12 05:47:25;;;;;;;;;;;5.80;99.90;;;;;;4974484;28;19962;-68
2023/12/12 05:49:50;;;;;;;;;;;5.70;99.90;;;;;;4973490;28;20102;-67
2023/12/12 05:52:16;;;;;;;;;;;5.70;99.90;;;;;;4973351;28;20065;-68
2023/12/12 05:54:42;;;;;;;;;;;5.70;99.90;;;;;;4973565;28;20687;-68
2023/12/12 05:57:07;;;;;;;;;;;5.60;99.90;;;;;;4973721;28;20013;-68
2023/12/12 05:59:33;;;;;;;;;;;5.60;99.90;;;;;;4973641;28;19998;-68
2023/12/12 06:02:00;;;;;;;;;;;5.60;99.90;;;;;;4972732;28;19958;-67
2023/12/12 06:04:27;;;;;;;;;;;5.60;99.90;;;;;;4988397;28;20023;-67
2023/12/12 06:06:52;;;;;;;;;;;5.60;99.90;;;;;;4972274;28;19962;-68
2023/12/12 06:09:18;;;;;;;;;;;5.60;99.90;;;;;;4973288;28;19955;-67
2023/12/12 06:11:43;;;;;;;;;;;5.50;99.90;;;;;;4972630;28;19975;-68
2023/12/12 06:14:09;;;;;;;;;;;5.60;99.90;;;;;;4973283;28;20375;-68
2023/12/12 06:16:34;;;;;;;;;;;5.50;99.90;;;;;;4973306;28;20059;-68
2023/12/12 06:19:04;;;;;;;;;;;5.50;99.90;;;;;;4973008;28;20013;-67
2023/12/12 06:21:33;;;;;;;;;;;5.40;99.90;;;;;;4971556;28;19978;-67
2023/12/12 06:24:03;;;;;;;;;;;5.40;99.90;;;;;;4973077;28;20041;-67
2023/12/12 06:26:28;;;;;;;;;;;5.40;99.90;;;;;;4973253;28;19968;-67
2023/12/12 06:28:54;;;;;;;;;;;5.30;99.90;;;;;;4973045;28;19958;-67
2023/12/12 06:31:20;;;;;;;;;;;5.30;99.90;;;;;;4972460;28;20001;-68
2023/12/12 06:33:45;;;;;;;;;;;5.30;99.90;;;;;;4971994;28;19965;-67
2023/12/12 06:36:11;;;;;;;;;;;5.30;99.90;;;;;;4972953;28;19954;-68
2023/12/12 06:38:36;;;;;;;;;;;5.30;99.90;;;;;;4972862;28;20049;-68
2023/12/12 06:41:03;;;;;;;;;;;5.30;99.90;;;;;;4972153;28;20447;-67
2023/12/12 06:43:28;;;;;;;;;;;5.20;99.90;;;;;;4972868;28;20047;-68
2023/12/12 06:45:54;;;;;;;;;;;5.20;99.90;;;;;;4972630;28;20640;-68
2023/12/12 06:48:19;;;;;;;;;;;5.20;99.90;;;;;;4972729;28;20049;-67
2023/12/12 06:50:45;;;;;;;;;;;5.20;99.90;;;;;;4971855;28;19979;-68
2023/12/12 06:53:10;;;;;;;;;;;5.20;99.90;;;;;;4972670;28;19963;-68
2023/12/12 06:55:37;;;;;;;;;;;5.10;99.90;;;;;;4972591;28;19967;-68
2023/12/12 06:58:03;;;;;;;;;;;5.20;99.90;;;;;;4972550;28;19973;-67
2023/12/12 07:00:29;;;;;;;;;;;5.20;99.90;;;;;;4971854;28;19974;-67
2023/12/12 07:02:55;;;;;;;;;;;5.10;99.90;;;;;;4972387;28;19959;-68
2023/12/12 07:05:21;;;;;;;;;;;5.20;99.90;;;;;;4972437;28;19963;-68
2023/12/12 07:07:47;;;;;;;;;;;5.20;99.90;;;;;;4972348;28;20674;-68
2023/12/12 07:10:13;;;;;;;;;;;5.10;99.90;;;;;;4971426;28;20072;-68
2023/12/12 07:12:38;;;;;;;;;;;5.20;99.90;;;;;;4972142;28;19959;-68
2023/12/12 07:15:04;;;;;;;;;;;5.20;99.90;;;;;;4972255;28;19967;-67
2023/12/12 07:17:30;;;;;;;;;;;5.30;99.90;;;;;;4971827;28;20443;-67
2023/12/12 07:19:55;;;;;;;;;;;5.30;99.90;;;;;;4971229;28;19990;-68
2023/12/12 07:22:21;;;;;;;;;;;5.30;99.90;;;;;;4972232;28;20400;-68
2023/12/12 07:24:46;;;;;;;;;;;5.30;99.90;;;;;;4970648;28;19982;-67
2023/12/12 07:27:12;;;;;;;;;;;5.30;99.90;;;;;;4971619;28;19986;-67
2023/12/12 07:29:38;;;;;;;;;;;5.40;99.90;;;;;;4971756;28;19963;-67
2023/12/12 07:32:03;;;;;;;;;;;5.40;99.90;;;;;;4971535;28;19965;-67
2023/12/12 07:34:29;;;;;;;;;;;5.50;99.90;;;;;;4967367;28;19970;-68
2023/12/12 07:36:54;;;;;;;;;;;5.50;99.90;;;;;;4963971;28;19948;-68
2023/12/12 07:39:20;;;;;;;;;;;5.50;99.90;;;;;;4966055;28;20073;-68
2023/12/12 07:41:45;;;;;;;;;;;5.50;99.90;;;;;;4970040;28;19988;-67
2023/12/12 07:44:12;;;;;;;;;;;5.60;99.90;;;;;;4971085;28;20241;-68
2023/12/12 07:46:41;;;;;;;;;;;5.60;99.90;;;;;;4971143;28;20049;-68
2023/12/12 07:49:06;;;;;;;;;;;5.70;99.90;;;;;;4963598;28;20473;-67
2023/12/12 07:51:32;;;;;;;;;;;5.80;99.90;;;;;;4970303;28;19979;-67
2023/12/12 07:53:58;;;;;;;;;;;5.70;99.90;;;;;;4970874;28;19967;-67
2023/12/12 07:56:23;;;;;;;;;;;5.80;99.90;;;;;;4971384;28;19962;-68
2023/12/12 07:58:49;;;;;;;;;;;5.80;99.90;;;;;;4971146;28;20005;-68
2023/12/12 08:01:15;;;;;;;;;;;5.80;99.90;;;;;;4970358;28;20041;-67
2023/12/12 08:03:41;;;;;;;;;;;5.90;99.90;;;;;;4971107;28;20029;-67
2023/12/12 08:06:07;;;;;;;;;;;6.00;99.90;;;;;;4970755;28;20040;-68
2023/12/12 08:08:33;;;;;;;;;;;6.00;99.90;;;;;;4971270;28;20374;-68
2023/12/12 08:10:58;;;;;;;;;;;6.00;99.90;;;;;;4970055;28;20010;-66
2023/12/12 08:13:24;;;;;;;;;;;6.00;99.90;;;;;;4971041;28;20025;-69
2023/12/12 08:15:50;;;;;;;;;;;5.90;99.90;;;;;;4970892;28;19959;-70
2023/12/12 08:18:15;;;;;;;;;;;5.90;99.90;;;;;;4970853;28;19958;-67
2023/12/12 08:20:41;;;;;;;;;;;5.80;99.90;;;;;;4970116;28;20014;-67
2023/12/12 08:23:06;;;;;;;;;;;5.80;99.90;;;;;;4970896;28;19963;-67
2023/12/12 08:25:32;;;;;;;;;;;5.70;99.90;;;;;;4970484;28;20367;-67
2023/12/12 08:27:57;;;;;;;;;;;5.80;99.90;;;;;;4968173;28;21840;-66
2023/12/12 08:30:23;;;;;;;;;;;5.70;99.90;;;;;;4966919;28;19978;-67
2023/12/12 08:32:49;;;;;;;;;;;5.70;99.90;;;;;;4974330;28;20049;-67
2023/12/12 08:35:14;;;;;;;;;;;5.70;99.90;;;;;;4974277;28;20432;-67
2023/12/12 08:37:40;;;;;;;;;;;5.70;99.90;;;;;;4974333;28;19913;-67
2023/12/12 08:40:05;;;;;;;;;;;5.80;99.90;;;;;;4973386;28;19981;-67
2023/12/12 08:42:31;;;;;;;;;;;5.70;99.90;;;;;;4974499;28;20423;-68
2023/12/12 08:44:56;;;;;;;;;;;5.60;99.90;;;;;;4974156;28;19989;-67
2023/12/12 08:47:22;;;;;;;;;;;5.70;99.90;;;;;;4974212;28;19973;-68
2023/12/12 08:49:47;;;;;;;;;;;5.60;99.90;;;;;;4973676;28;19987;-67
2023/12/12 08:52:14;;;;;;;;;;;5.60;99.90;;;;;;4973699;28;19964;-68
2023/12/12 08:54:42;;;;;;;;;;;5.50;99.90;;;;;;4973978;28;20042;-67
2023/12/12 08:57:09;;;;;;;;;;;5.50;99.90;;;;;;4974120;28;19962;-67
2023/12/12 08:59:38;;;;;;;;;;;5.60;99.90;;;;;;4973904;28;20237;-67
2023/12/12 09:02:04;;;;;;;;;;;5.60;99.90;;;;;;4973472;28;20006;-68
2023/12/12 09:04:29;;;;;;;;;;;5.60;99.90;;;;;;4973858;28;19978;-67
2023/12/12 09:06:55;;;;;;;;;;;5.50;99.90;;;;;;4973658;28;20434;-67
2023/12/12 09:09:22;;;;;;;;;;;5.50;99.90;;;;;;4974132;28;19963;-68
2023/12/12 09:11:48;;;;;;;;;;;5.50;99.90;;;;;;4972963;28;20123;-67
2023/12/12 09:14:13;;;;;;;;;;;5.40;99.90;;;;;;4969062;28;19969;-67
2023/12/12 09:16:39;;;;;;;;;;;5.40;99.90;;;;;;4960824;28;20455;-67
2023/12/12 09:19:06;;;;;;;;;;;5.50;99.90;;;;;;4970642;28;20034;-67
2023/12/12 09:21:31;;;;;;;;;;;5.50;99.90;;;;;;4973057;28;20023;-67
2023/12/12 09:23:57;;;;;;;;;;;5.60;99.90;;;;;;4971925;28;20052;-66
2023/12/12 09:26:22;;;;;;;;;;;5.70;99.90;;;;;;4973161;28;20477;-66
2023/12/12 09:28:48;;;;;;;;;;;5.80;99.90;;;;;;4973386;28;20020;-67
2023/12/12 09:31:13;;;;;;;;;;;5.90;99.90;;;;;;4972518;28;19962;-67
2023/12/12 09:33:39;;;;;;;;;;;5.90;99.90;;;;;;4973576;28;19962;-67
2023/12/12 09:36:06;;;;;;;;;;;6.20;99.90;;;;;;4973297;28;20450;-67
2023/12/12 09:38:31;;;;;;;;;;;6.40;99.90;;;;;;4973255;28;19970;-67
2023/12/12 09:40:57;;;;;;;;;;;6.70;99.90;;;;;;4972130;28;19981;-67
2023/12/12 09:43:26;;;;;;;;;;;6.90;99.90;;;;;;4970425;28;19974;-67
2023/12/12 09:45:55;;;;;;;;;;;7.20;99.90;;;;;;4963818;28;19974;-67
2023/12/12 09:48:20;;;;;;;;;;;7.30;99.90;;;;;;4973087;28;19981;-67
2023/12/12 09:50:46;;;;;;;;;;;7.50;99.90;;;;;;4972717;28;19977;-67
2023/12/12 09:53:11;;;;;;;;;;;7.60;99.90;;;;;;4973143;28;19957;-67
2023/12/12 09:55:37;;;;;;;;;;;7.60;99.90;;;;;;4968957;28;20407;-67
2023/12/12 09:58:02;;;;;;;;;;;7.70;99.90;;;;;;4972908;28;20431;-67
2023/12/12 10:00:28;;;;;;;;;;;7.80;99.90;;;;;;4987247;28;19972;-67
2023/12/12 10:02:57;;;;;;;;;;;8.00;99.90;;;;;;4972909;28;19967;-67
2023/12/12 10:05:22;;;;;;;;;;;8.10;99.90;;;;;;4973086;28;19980;-67
2023/12/12 10:07:48;;;;;;;;;;;8.30;99.90;;;;;;4972623;28;19970;-67
2023/12/12 10:10:14;;;;;;;;;;;8.40;99.90;;;;;;4972075;28;20403;-67
2023/12/12 10:12:41;;;;;;;;;;;8.50;99.90;;;;;;4972506;28;20003;-67
2023/12/12 10:15:20;;;;;;;;;;;8.50;99.90;;;;;;4972857;28;19959;-67
2023/12/12 10:17:45;;;;;;;;;;;8.60;99.90;;;;;;4972492;28;20002;-67
2023/12/12 10:20:11;;;;;;;;;;;8.70;99.90;;;;;;4971604;28;20006;-67
2023/12/12 10:22:36;;;;;;;;;;;8.70;99.90;;;;;;4972652;28;19958;-67
2023/12/12 10:25:11;;;;;;;;;;;8.70;99.90;;;;;;4972189;28;20612;-67
2023/12/12 10:27:41;;;;;;;;;;;8.60;99.90;;;;;;4987407;28;19958;-66
2023/12/12 10:30:07;;;;;;;;;;;8.70;99.90;;;;;;4963884;28;19969;-66
2023/12/12 10:32:35;;;;;;;;;;;8.90;99.90;;;;;;4972449;28;19964;-66
2023/12/12 10:35:01;;;;;;;;;;;9.20;99.90;;;;;;4972467;28;19961;-67
2023/12/12 10:37:26;;;;;;;;;;;9.30;99.90;;;;;;4972319;28;19966;-67
2023/12/12 10:39:52;;;;;;;;;;;9.40;99.90;;;;;;4971826;28;20065;-67
2023/12/12 10:42:17;;;;;;;;;;;9.50;99.90;;;;;;4971624;28;19962;-66
2023/12/12 10:44:46;;;;;;;;;;;9.50;99.90;;;;;;4971725;28;19979;-67
2023/12/12 10:47:13;;;;;;;;;;;9.70;99.90;;;;;;4969328;28;20392;-67
2023/12/12 10:49:41;;;;;;;;;;;9.80;99.90;;;;;;4971494;28;20036;-66
2023/12/12 10:52:08;;;;;;;;;;;9.90;99.90;;;;;;4971020;28;19953;-67
2023/12/12 10:54:35;;;;;;;;;;;9.90;99.90;;;;;;4971652;28;19996;-66
2023/12/12 10:57:04;;;;;;;;;;;9.60;99.90;;;;;;4971711;28;19957;-66
2023/12/12 10:59:31;;;;;;;;;;;9.70;99.90;;;;;;4971671;28;20011;-66
2023/12/12 11:01:56;;;;;;;;;;;9.70;99.90;;;;;;4970799;28;20046;-66
2023/12/12 11:04:23;;;;;;;;;;;9.70;99.90;;;;;;4971928;28;19965;-66
2023/12/12 11:06:50;;;;;;;;;;;9.80;99.90;;;;;;4971451;28;19953;-66
2023/12/12 11:09:15;;;;;;;;;;;9.90;99.90;;;;;;4971465;28;19948;-69
2023/12/12 11:11:42;;;;;;;;;;;10.00;99.90;;;;;;4970762;28;19999;-65
2023/12/12 11:14:08;;;;;;;;;;;9.90;99.90;;;;;;4971453;28;19977;-67
2023/12/12 11:16:34;;;;;;;;;;;9.90;99.90;;;;;;4970137;28;20341;-66
2023/12/12 11:19:01;;;;;;;;;;;9.90;99.90;;;;;;4968842;28;19956;-65
2023/12/12 11:21:43;;;;;;;;;;;10.00;99.90;;;;;;4966440;28;19969;-65
2023/12/12 11:24:09;;;;;;;;;;;9.90;99.90;;;;;;4986333;28;20007;-67
2023/12/12 11:26:34;;;;;;;;;;;9.90;99.90;;;;;;4971444;28;19961;-68
2023/12/12 11:29:00;;;;;;;;;;;9.80;99.90;;;;;;4971203;28;19970;-68
2023/12/12 11:31:26;;;;;;;;;;;9.90;99.90;;;;;;4970211;28;19998;-67
2023/12/12 11:34:02;;;;;;;;;;;10.00;99.90;;;;;;4970620;28;19973;-67
2023/12/12 11:36:28;;;;;;;;;;;10.00;99.90;;;;;;4970109;28;20051;-68
2023/12/12 11:38:54;;;;;;;;;;;10.20;99.90;;;;;;4971125;28;20005;-67
2023/12/12 11:41:19;;;;;;;;;;;10.30;99.90;;;;;;4970328;28;19995;-68
2023/12/12 11:43:45;;;;;;;;;;;10.30;99.90;;;;;;4971258;28;19966;-68
2023/12/12 11:46:30;;;;;;;;;;;10.30;99.90;;;;;;4971268;28;20062;-67
2023/12/12 11:48:55;;;;;;;;;;;10.10;99.90;;;;;;4971257;28;20063;-68
2023/12/12 11:51:33;;;;;;;;;;;9.90;99.90;;;;;;4970841;28;20023;-65
2023/12/12 11:54:00;;;;;;;;;;;9.80;99.90;;;;;;4971065;28;19953;-67
2023/12/12 11:56:25;;;;;;;;;;;9.80;99.90;;;;;;4970855;28;20074;-68
2023/12/12 11:58:52;;;;;;;;;;;9.80;99.90;;;;;;4971071;28;20425;-68
2023/12/12 12:01:25;;;;;;;;;;;9.90;99.90;;;;;;4970426;28;20098;-68
2023/12/12 12:03:51;;;;;;;;;;;10.00;99.90;;;;;;4972282;28;19995;-69
2023/12/12 12:06:17;;;;;;;;;;;9.90;99.90;;;;;;4975077;28;19974;-67
2023/12/12 12:08:42;;;;;;;;;;;9.90;99.90;;;;;;4974862;28;19943;-66
2023/12/12 12:11:08;;;;;;;;;;;9.80;99.90;;;;;;4974183;28;20525;-69
2023/12/12 12:13:40;;;;;;;;;;;9.80;99.90;;;;;;4974772;28;19936;-66
2023/12/12 12:16:06;;;;;;;;;;;9.80;99.90;;;;;;4974787;28;19927;-65
2023/12/12 12:18:31;;;;;;;;;;;9.90;99.90;;;;;;4975420;28;19936;-67
2023/12/12 12:20:57;;;;;;;;;;;10.00;99.90;;;;;;4973729;28;19976;-68
2023/12/12 12:23:23;;;;;;;;;;;10.00;99.90;;;;;;4974734;28;20038;-67
2023/12/12 12:25:48;;;;;;;;;;;10.00;99.90;;;;;;4974406;28;20034;-67
2023/12/12 12:28:14;;;;;;;;;;;9.90;99.90;;;;;;4974665;28;20301;-67
2023/12/12 12:30:46;;;;;;;;;;;9.80;99.90;;;;;;4974085;28;20387;-68
2023/12/12 12:33:12;;;;;;;;;;;9.70;99.90;;;;;;4967722;28;20397;-67
2023/12/12 12:35:49;;;;;;;;;;;9.80;99.90;;;;;;4973853;28;19978;-68
2023/12/12 12:38:25;;;;;;;;;;;9.90;99.90;;;;;;4967475;28;19934;-67
2023/12/12 12:40:50;;;;;;;;;;;9.80;99.90;;;;;;4973393;28;20030;-67
2023/12/12 12:43:17;;;;;;;;;;;9.90;99.90;;;;;;4974415;28;19958;-68
2023/12/12 12:45:43;;;;;;;;;;;9.90;99.90;;;;;;4974211;28;20057;-68
2023/12/12 12:48:08;;;;;;;;;;;10.00;99.90;;;;;;4974193;28;20034;-67
2023/12/12 12:50:34;;;;;;;;;;;10.00;99.90;;;;;;4973754;28;19996;-67
2023/12/12 12:53:02;;;;;;;;;;;10.00;99.90;;;;;;4973812;28;19957;-67
2023/12/12 12:55:27;;;;;;;;;;;10.00;99.90;;;;;;4974077;28;20039;-67
2023/12/12 12:57:53;;;;;;;;;;;10.00;99.90;;;;;;4973976;28;20365;-68
2023/12/12 13:00:18;;;;;;;;;;;9.90;99.90;;;;;;4973362;28;20427;-68
2023/12/12 13:02:45;;;;;;;;;;;9.80;99.90;;;;;;4973944;28;20001;-68
2023/12/12 13:05:11;;;;;;;;;;;9.70;99.90;;;;;;4973789;28;20005;-67
2023/12/12 13:07:36;;;;;;;;;;;9.70;99.90;;;;;;4974016;28;19940;-67
2023/12/12 13:10:02;;;;;;;;;;;9.50;99.90;;;;;;4972871;28;19967;-68
2023/12/12 13:12:28;;;;;;;;;;;9.50;99.90;;;;;;4973726;28;20312;-67
2023/12/12 13:14:54;;;;;;;;;;;9.40;99.90;;;;;;4973296;28;19959;-68
2023/12/12 13:17:20;;;;;;;;;;;9.40;99.90;;;;;;4973369;28;19950;-67
2023/12/12 13:19:45;;;;;;;;;;;9.40;99.90;;;;;;4973321;28;19963;-65
2023/12/12 13:22:11;;;;;;;;;;;9.40;99.90;;;;;;4973395;28;20358;-66
2023/12/12 13:24:36;;;;;;;;;;;9.30;99.90;;;;;;4973552;28;19964;-66
2023/12/12 13:27:02;;;;;;;;;;;9.30;99.90;;;;;;4973503;28;20000;-66
2023/12/12 13:29:27;;;;;;;;;;;9.30;99.90;;;;;;4973415;28;20334;-67
2023/12/12 13:31:53;;;;;;;;;;;9.20;99.90;;;;;;4972781;28;19951;-67
2023/12/12 13:34:19;;;;;;;;;;;9.30;99.90;;;;;;4973510;28;19950;-68
2023/12/12 13:36:44;;;;;;;;;;;9.30;99.90;;;;;;4973311;28;20368;-68
2023/12/12 13:39:12;;;;;;;;;;;9.30;99.90;;;;;;4972327;28;20044;-68
2023/12/12 13:41:39;;;;;;;;;;;9.20;99.90;;;;;;4972087;28;20418;-67
2023/12/12 13:44:05;;;;;;;;;;;9.10;99.90;;;;;;4971899;28;19955;-67
2023/12/12 13:46:30;;;;;;;;;;;9.00;99.90;;;;;;4973222;28;20052;-68
2023/12/12 13:48:56;;;;;;;;;;;9.00;99.90;;;;;;4973096;28;19947;-68
2023/12/12 13:51:21;;;;;;;;;;;9.00;99.90;;;;;;4972381;28;19964;-67
2023/12/12 13:53:50;;;;;;;;;;;8.90;99.90;;;;;;4972988;28;20017;-68
2023/12/12 13:56:16;;;;;;;;;;;8.80;99.90;;;;;;4973386;28;19938;-67
2023/12/12 13:58:41;;;;;;;;;;;8.80;99.90;;;;;;4973029;28;19951;-69
2023/12/12 14:01:07;;;;;;;;;;;8.80;99.90;;;;;;4972056;28;19960;-68
2023/12/12 14:03:32;;;;;;;;;;;8.70;99.90;;;;;;4972929;28;19944;-69
2023/12/12 14:05:58;;;;;;;;;;;8.60;99.90;;;;;;4972693;28;20013;-67
2023/12/12 14:08:23;;;;;;;;;;;8.60;99.90;;;;;;4972894;28;20307;-68
2023/12/12 14:10:49;;;;;;;;;;;8.60;99.90;;;;;;4971630;28;20329;-66
2023/12/12 14:13:14;;;;;;;;;;;8.60;99.90;;;;;;4972990;28;19960;-65
2023/12/12 14:15:40;;;;;;;;;;;8.60;99.90;;;;;;4973402;28;19945;-67
2023/12/12 14:18:05;;;;;;;;;;;8.60;99.90;;;;;;4973405;28;19910;-67
2023/12/12 14:20:31;;;;;;;;;;;8.60;99.90;;;;;;4972736;28;19984;-67